Algodones, New Mexico
Current Conditions -  °F | °C
As of 7:52 AM on Wednesday 26 Nov 2014 (Local Time) from KABQ Reporting Station
Scattered Clouds Scattered Clouds  
Wind Chill:   Ceiling: Unl
Heat Index:   Visibility: 10mi
Dew Point: -13°   Wind: 0mph
Humidity: 33%   Direction: NA
Pressure: 30.37"   Gusts: NA
Location:  35.38°N, 106.48°W
Report Text: KABQ 261452Z 00000KT 10SM SCT250 02/M13 A3037 RMK AO2 SLP279 T00221128 51011
Loading
Personal Weather Stations






























Interactive Weather Map New forecast layout! Learn more

10-Day Weather Forecast

Advertisements
Track Severe Weather on mobile